createdAt,value
2023-07-20T00:00:12.176Z,68.71
2023-07-20T00:01:02.240Z,68.79
2023-07-20T00:01:52.311Z,68.78
2023-07-20T00:02:42.377Z,68.69
2023-07-20T00:03:32.397Z,68.61
2023-07-20T00:04:22.525Z,68.80
2023-07-20T00:05:12.536Z,68.69
2023-07-20T00:06:02.625Z,68.59
2023-07-20T00:06:52.661Z,68.78
2023-07-20T00:07:42.702Z,68.74
2023-07-20T00:08:32.732Z,68.66
2023-07-20T00:09:22.794Z,68.70
2023-07-20T00:10:12.828Z,68.52
2023-07-20T00:11:02.912Z,68.52
2023-07-20T00:11:52.935Z,68.58
2023-07-20T00:12:43.055Z,68.53
2023-07-20T00:13:33.083Z,68.55
2023-07-20T00:14:23.170Z,68.66
2023-07-20T00:15:13.203Z,68.63
2023-07-20T00:16:03.249Z,68.70
2023-07-20T00:16:53.322Z,68.64
2023-07-20T00:17:43.369Z,68.67
2023-07-20T00:18:33.427Z,68.56
2023-07-20T00:19:23.528Z,68.73
2023-07-20T00:20:13.560Z,68.68
2023-07-20T00:21:03.650Z,68.66
2023-07-20T00:21:53.660Z,68.73
2023-07-20T00:22:43.737Z,68.59
2023-07-20T00:23:36.308Z,68.67
2023-07-20T00:24:23.804Z,68.83
2023-07-20T00:25:13.844Z,68.71
2023-07-20T00:26:03.933Z,68.72
2023-07-20T00:26:53.976Z,68.71
2023-07-20T00:27:44.024Z,68.75
2023-07-20T00:28:34.054Z,68.75
2023-07-20T00:29:24.106Z,68.70
2023-07-20T00:30:14.184Z,68.70
2023-07-20T00:31:04.296Z,68.84
2023-07-20T00:31:54.242Z,68.63
2023-07-20T00:32:44.339Z,68.64
2023-07-20T00:33:34.327Z,68.74
2023-07-20T00:34:24.446Z,68.73
2023-07-20T00:35:14.430Z,68.76
2023-07-20T00:36:04.494Z,68.82
2023-07-20T00:36:54.607Z,68.85
2023-07-20T00:37:44.683Z,68.75
2023-07-20T00:38:34.721Z,68.70
2023-07-20T00:39:24.772Z,68.70
2023-07-20T00:40:14.799Z,68.80
2023-07-20T00:41:04.921Z,68.92
2023-07-20T00:41:54.941Z,68.90
2023-07-20T00:42:45.015Z,68.85
2023-07-20T00:43:35.023Z,68.85
2023-07-20T00:44:25.071Z,68.85
2023-07-20T00:45:15.104Z,68.89
2023-07-20T00:46:05.309Z,68.84
2023-07-20T00:46:55.392Z,68.85
2023-07-20T00:47:45.516Z,68.91
2023-07-20T00:48:35.420Z,68.84
2023-07-20T00:49:25.502Z,68.84
2023-07-20T00:50:15.576Z,68.94
2023-07-20T00:51:05.615Z,68.90
2023-07-20T00:51:55.630Z,68.88
2023-07-20T00:52:45.689Z,68.86
2023-07-20T00:53:35.718Z,68.83
2023-07-20T00:54:25.768Z,68.86
2023-07-20T00:55:15.792Z,68.84
2023-07-20T00:56:05.883Z,68.97
2023-07-20T00:56:55.912Z,69.03
2023-07-20T00:57:45.995Z,68.99
2023-07-20T00:58:36.017Z,69.04
2023-07-20T00:59:26.100Z,68.94
2023-07-20T01:00:16.147Z,69.04
2023-07-20T01:01:08.266Z,69.03
2023-07-20T01:01:56.295Z,69.13
2023-07-20T01:02:46.660Z,69.02
2023-07-20T01:03:36.646Z,69.07
2023-07-20T01:04:26.667Z,69.14
2023-07-20T01:05:16.994Z,69.03
2023-07-20T01:06:07.117Z,69.04
2023-07-20T01:06:57.114Z,69.10
2023-07-20T01:07:47.454Z,69.23
2023-07-20T01:08:37.496Z,69.22
2023-07-20T01:09:27.537Z,69.24
2023-07-20T01:10:17.568Z,69.36
2023-07-20T01:11:07.670Z,69.33
2023-07-20T01:11:57.705Z,69.28
2023-07-20T01:12:47.736Z,69.46
2023-07-20T01:13:37.817Z,69.44
2023-07-20T01:14:27.854Z,69.54
2023-07-20T01:15:17.929Z,69.48
2023-07-20T01:16:08.024Z,69.56
2023-07-20T01:16:58.080Z,69.59
2023-07-20T01:17:48.087Z,69.53
2023-07-20T01:18:38.118Z,69.45
2023-07-20T01:19:28.156Z,69.46
2023-07-20T01:20:18.188Z,69.48
2023-07-20T01:21:08.346Z,69.62
2023-07-20T01:21:58.399Z,69.58
2023-07-20T01:22:48.455Z,69.49
2023-07-20T01:23:38.570Z,69.62
2023-07-20T01:24:28.527Z,69.54
2023-07-20T01:25:18.567Z,69.58
2023-07-20T01:26:08.612Z,69.56
2023-07-20T01:26:58.647Z,69.62
2023-07-20T01:27:48.814Z,69.75
2023-07-20T01:28:38.890Z,69.66
2023-07-20T01:29:28.940Z,69.68
2023-07-20T01:30:19.007Z,69.90
2023-07-20T01:31:09.084Z,69.75
2023-07-20T01:31:59.147Z,69.73
2023-07-20T01:32:49.167Z,69.68
2023-07-20T01:33:39.228Z,69.80
2023-07-20T01:34:29.260Z,69.73
2023-07-20T01:35:19.303Z,69.81
2023-07-20T01:36:09.347Z,69.68
2023-07-20T01:36:59.396Z,69.81
2023-07-20T01:37:49.450Z,69.81
2023-07-20T01:38:39.507Z,69.84
2023-07-20T01:39:29.529Z,69.98
2023-07-20T01:40:19.595Z,69.83
2023-07-20T01:41:09.673Z,69.80
2023-07-20T01:41:59.712Z,69.92
2023-07-20T01:42:49.752Z,69.83
2023-07-20T01:43:39.785Z,69.80
2023-07-20T01:44:29.811Z,69.83
2023-07-20T01:45:19.901Z,69.87
2023-07-20T01:46:10.004Z,69.94
2023-07-20T01:46:59.984Z,69.86
2023-07-20T01:47:50.077Z,69.83
2023-07-20T01:48:40.210Z,69.85
2023-07-20T01:49:30.172Z,69.82
2023-07-20T01:50:20.227Z,69.73
2023-07-20T01:51:10.266Z,69.95
2023-07-20T01:52:00.306Z,69.88
2023-07-20T01:52:50.337Z,69.86
2023-07-20T01:53:40.416Z,69.83
2023-07-20T01:54:30.473Z,69.87
2023-07-20T01:55:20.523Z,69.90
2023-07-20T01:56:10.590Z,69.88
2023-07-20T01:57:00.610Z,69.92
2023-07-20T01:57:50.644Z,70.00
2023-07-20T01:58:40.699Z,69.89
2023-07-20T01:59:30.722Z,69.87
2023-07-20T02:00:20.766Z,69.87
2023-07-20T02:01:10.906Z,69.96
2023-07-20T02:02:00.902Z,70.07
2023-07-20T02:02:50.981Z,69.95
2023-07-20T02:03:41.040Z,69.97
2023-07-20T02:04:31.060Z,70.05
2023-07-20T02:05:21.253Z,70.04
2023-07-20T02:06:11.236Z,69.97
2023-07-20T02:07:01.248Z,70.05
2023-07-20T02:07:51.309Z,70.13
2023-07-20T02:08:41.384Z,70.16
2023-07-20T02:09:31.429Z,70.18
2023-07-20T02:10:21.501Z,70.18
2023-07-20T02:11:11.566Z,70.21
2023-07-20T02:12:01.608Z,70.26
2023-07-20T02:12:51.642Z,70.18
2023-07-20T02:13:41.718Z,70.38
2023-07-20T02:14:31.821Z,70.31
2023-07-20T02:15:21.863Z,70.27
2023-07-20T02:16:11.982Z,70.23
2023-07-20T02:17:01.971Z,70.29
2023-07-20T02:17:51.989Z,70.32
2023-07-20T02:18:42.065Z,70.37
2023-07-20T02:19:32.116Z,70.31
2023-07-20T02:20:22.194Z,70.31
2023-07-20T02:21:12.256Z,70.17
2023-07-20T02:22:02.283Z,70.31
2023-07-20T02:22:53.122Z,70.33
2023-07-20T02:23:42.400Z,70.30
2023-07-20T02:24:32.454Z,70.33
2023-07-20T02:25:22.560Z,70.34
2023-07-20T02:26:12.588Z,70.33
2023-07-20T02:27:02.628Z,70.34
2023-07-20T02:27:52.652Z,70.35
2023-07-20T02:28:42.725Z,70.26
2023-07-20T02:29:32.756Z,70.38
2023-07-20T02:30:22.828Z,70.32
2023-07-20T02:31:12.956Z,70.39
2023-07-20T02:32:02.940Z,70.37
2023-07-20T02:32:52.983Z,70.39
2023-07-20T02:33:43.054Z,70.44
2023-07-20T02:34:33.086Z,70.47
2023-07-20T02:35:23.161Z,70.37
2023-07-20T02:36:13.202Z,70.48
2023-07-20T02:37:03.241Z,70.55
2023-07-20T02:37:53.286Z,70.49
2023-07-20T02:38:43.358Z,70.50
2023-07-20T02:39:33.389Z,70.45
2023-07-20T02:40:23.456Z,70.45
2023-07-20T02:41:13.570Z,70.51
2023-07-20T02:42:03.594Z,70.50
2023-07-20T02:42:53.625Z,70.50
2023-07-20T02:43:43.697Z,70.48
2023-07-20T02:44:33.731Z,70.45
2023-07-20T02:45:23.818Z,70.46
2023-07-20T02:46:13.881Z,70.45
2023-07-20T02:47:03.941Z,70.50
2023-07-20T02:47:53.947Z,70.51
2023-07-20T02:48:44.017Z,70.64
2023-07-20T02:49:34.080Z,70.60
2023-07-20T02:50:24.141Z,70.66
2023-07-20T02:51:14.200Z,70.66
2023-07-20T02:52:04.261Z,70.62
2023-07-20T02:52:54.262Z,70.61
2023-07-20T02:53:44.338Z,70.66
2023-07-20T02:54:34.407Z,70.65
2023-07-20T02:55:24.472Z,70.65
2023-07-20T02:56:14.542Z,70.59
2023-07-20T02:57:04.690Z,70.67
2023-07-20T02:57:54.656Z,70.64
2023-07-20T02:58:44.738Z,70.60
2023-07-20T02:59:34.813Z,70.72
2023-07-20T03:00:24.842Z,70.69
2023-07-20T03:01:14.926Z,70.62
2023-07-20T03:02:05.138Z,70.66
2023-07-20T03:02:55.172Z,70.58
2023-07-20T03:03:45.281Z,70.60
2023-07-20T03:04:35.294Z,70.70
2023-07-20T03:05:25.371Z,70.69
2023-07-20T03:06:15.496Z,70.63
2023-07-20T03:07:05.482Z,70.66
2023-07-20T03:07:55.555Z,70.63
2023-07-20T03:08:45.624Z,70.67
2023-07-20T03:09:35.695Z,70.72
2023-07-20T03:10:25.772Z,70.66
2023-07-20T03:11:16.055Z,70.68
2023-07-20T03:12:06.127Z,70.73
2023-07-20T03:12:56.120Z,70.66
2023-07-20T03:13:46.172Z,70.72
2023-07-20T03:14:36.196Z,70.65
2023-07-20T03:15:26.280Z,70.67
2023-07-20T03:16:16.389Z,70.67
2023-07-20T03:17:06.432Z,70.72
2023-07-20T03:17:56.475Z,70.65
2023-07-20T03:18:46.531Z,70.65
2023-07-20T03:19:36.599Z,70.62
2023-07-20T03:20:26.922Z,70.67
2023-07-20T03:21:17.011Z,70.74
2023-07-20T03:22:07.043Z,70.65
2023-07-20T03:22:57.408Z,70.69
2023-07-20T03:23:47.427Z,70.72
2023-07-20T03:24:37.459Z,70.64
2023-07-20T03:25:28.853Z,70.63
2023-07-20T03:26:17.717Z,70.62
2023-07-20T03:27:07.741Z,70.66
2023-07-20T03:27:57.801Z,70.68
2023-07-20T03:28:47.888Z,70.69
2023-07-20T03:29:37.935Z,70.75
2023-07-20T03:30:28.005Z,70.66
2023-07-20T03:31:18.148Z,70.70
2023-07-20T03:32:08.128Z,70.69
2023-07-20T03:32:58.219Z,70.87
2023-07-20T03:33:48.256Z,70.80
2023-07-20T03:34:38.328Z,70.74
2023-07-20T03:35:28.568Z,70.80
2023-07-20T03:36:18.652Z,70.83
2023-07-20T03:37:08.689Z,70.74
2023-07-20T03:37:59.568Z,70.75
2023-07-20T03:38:48.798Z,70.81
2023-07-20T03:39:38.821Z,70.76
2023-07-20T03:40:28.906Z,70.74
2023-07-20T03:41:18.998Z,70.85
2023-07-20T03:42:09.022Z,70.67
2023-07-20T03:42:59.060Z,70.78
2023-07-20T03:43:49.119Z,70.79
2023-07-20T03:44:39.209Z,70.74
2023-07-20T03:45:29.264Z,70.79
2023-07-20T03:46:19.703Z,70.80
2023-07-20T03:47:09.659Z,70.76
2023-07-20T03:47:59.760Z,70.76
2023-07-20T03:48:49.795Z,70.76
2023-07-20T03:49:39.860Z,70.80
2023-07-20T03:50:29.934Z,70.84
2023-07-20T03:51:20.008Z,70.83
2023-07-20T03:52:10.024Z,70.88
2023-07-20T03:53:00.102Z,70.80
2023-07-20T03:53:50.150Z,70.87
2023-07-20T03:54:40.213Z,70.78
2023-07-20T03:55:30.287Z,70.85
2023-07-20T03:56:20.492Z,70.75
2023-07-20T03:57:10.601Z,70.80
2023-07-20T03:58:00.664Z,70.84
2023-07-20T03:58:50.696Z,70.84
2023-07-20T03:59:41.012Z,70.87
2023-07-20T04:00:31.109Z,70.84
2023-07-20T04:01:21.297Z,70.88
2023-07-20T04:02:11.223Z,70.89
2023-07-20T04:03:01.314Z,70.87
2023-07-20T04:03:51.289Z,70.91
2023-07-20T04:04:41.358Z,70.86
2023-07-20T04:05:31.428Z,70.84
2023-07-20T04:06:21.775Z,70.98
2023-07-20T04:07:11.562Z,70.97
2023-07-20T04:08:01.616Z,70.93
2023-07-20T04:08:51.899Z,70.98
2023-07-20T04:09:41.983Z,71.00
2023-07-20T04:10:32.057Z,70.96
2023-07-20T04:11:22.081Z,70.92
2023-07-20T04:12:12.107Z,71.07
2023-07-20T04:13:02.180Z,71.01
2023-07-20T04:13:52.257Z,71.04
2023-07-20T04:14:42.285Z,71.15
2023-07-20T04:15:32.327Z,71.16
2023-07-20T04:16:22.710Z,71.14
2023-07-20T04:17:12.462Z,71.10
2023-07-20T04:18:03.069Z,71.26
2023-07-20T04:18:52.558Z,71.19
2023-07-20T04:19:42.841Z,71.19
2023-07-20T04:20:32.878Z,71.22
2023-07-20T04:21:22.945Z,71.27
2023-07-20T04:22:12.985Z,71.20
2023-07-20T04:23:03.122Z,71.13
2023-07-20T04:23:53.049Z,71.22
2023-07-20T04:24:43.077Z,71.16
2023-07-20T04:25:33.120Z,71.25
2023-07-20T04:26:23.418Z,71.26
2023-07-20T04:27:13.261Z,71.26
2023-07-20T04:28:03.301Z,71.25
2023-07-20T04:28:53.354Z,71.25
2023-07-20T04:29:43.410Z,71.31
2023-07-20T04:30:33.450Z,71.28
2023-07-20T04:31:23.548Z,71.36
2023-07-20T04:32:13.542Z,71.25
2023-07-20T04:33:03.675Z,71.28
2023-07-20T04:33:53.672Z,71.22
2023-07-20T04:34:43.716Z,71.30
2023-07-20T04:35:33.785Z,71.33
2023-07-20T04:36:24.087Z,71.24
2023-07-20T04:37:13.932Z,71.28
2023-07-20T04:38:03.930Z,71.24
2023-07-20T04:38:54.011Z,71.16
2023-07-20T04:39:44.039Z,71.27
2023-07-20T04:40:34.130Z,71.22
2023-07-20T04:41:24.169Z,71.27
2023-07-20T04:42:14.222Z,71.30
2023-07-20T04:43:04.271Z,71.35
2023-07-20T04:43:54.332Z,71.37
2023-07-20T04:44:44.349Z,71.29
2023-07-20T04:45:34.389Z,71.37
2023-07-20T04:46:24.897Z,71.43
2023-07-20T04:47:14.509Z,71.40
2023-07-20T04:48:04.674Z,71.37
2023-07-20T04:48:54.675Z,71.32
2023-07-20T04:49:44.691Z,71.30
2023-07-20T04:50:34.791Z,71.36
2023-07-20T04:51:24.823Z,71.26
2023-07-20T04:52:15.700Z,71.26
2023-07-20T04:53:04.983Z,71.20
2023-07-20T04:53:55.022Z,71.13
2023-07-20T04:54:45.049Z,71.15
2023-07-20T04:55:35.091Z,71.25
2023-07-20T04:56:25.319Z,71.24
2023-07-20T04:57:15.201Z,71.23
2023-07-20T04:58:05.253Z,71.06
2023-07-20T04:58:55.367Z,71.19
2023-07-20T04:59:45.391Z,71.18
2023-07-20T05:00:35.467Z,71.20
2023-07-20T05:01:25.518Z,71.13
2023-07-20T05:02:15.523Z,71.10
2023-07-20T05:03:05.676Z,71.13
2023-07-20T05:03:55.733Z,71.14
2023-07-20T05:04:45.644Z,71.17
2023-07-20T05:05:35.732Z,71.21
2023-07-20T05:06:25.903Z,71.06
2023-07-20T05:07:15.818Z,71.07
2023-07-20T05:08:05.888Z,71.06
2023-07-20T05:08:55.967Z,71.02
2023-07-20T05:09:45.989Z,71.01
2023-07-20T05:10:36.074Z,71.05
2023-07-20T05:11:26.135Z,71.08
2023-07-20T05:12:17.423Z,70.99
2023-07-20T05:13:06.220Z,71.12
2023-07-20T05:13:56.257Z,71.09
2023-07-20T05:14:46.301Z,71.09
2023-07-20T05:15:36.421Z,71.09
2023-07-20T05:16:26.637Z,70.99
2023-07-20T05:17:16.462Z,71.02
2023-07-20T05:18:06.554Z,71.04
2023-07-20T05:18:56.816Z,71.00
2023-07-20T05:19:46.950Z,71.24
2023-07-20T05:20:36.935Z,71.19
2023-07-20T05:21:27.025Z,71.19
2023-07-20T05:22:17.065Z,71.20
2023-07-20T05:23:07.161Z,71.12
2023-07-20T05:23:57.183Z,71.12
2023-07-20T05:24:47.215Z,71.08
2023-07-20T05:25:37.307Z,71.00
2023-07-20T05:26:27.341Z,70.92
2023-07-20T05:27:17.370Z,70.97
2023-07-20T05:28:07.441Z,70.95
2023-07-20T05:28:57.508Z,71.03
2023-07-20T05:29:47.541Z,71.03
2023-07-20T05:30:37.655Z,71.01
2023-07-20T05:31:27.777Z,70.93
2023-07-20T05:32:17.785Z,71.00
2023-07-20T05:33:07.874Z,70.89
2023-07-20T05:33:57.904Z,70.91
2023-07-20T05:34:47.990Z,70.93
2023-07-20T05:35:38.025Z,70.96
2023-07-20T05:36:28.057Z,70.91
2023-07-20T05:37:18.101Z,70.93
2023-07-20T05:38:08.130Z,71.00
2023-07-20T05:38:58.202Z,70.90
2023-07-20T05:39:48.224Z,71.02
2023-07-20T05:40:38.304Z,70.86
2023-07-20T05:41:28.361Z,70.90
2023-07-20T05:42:18.384Z,70.88
2023-07-20T05:43:08.416Z,70.88
2023-07-20T05:43:58.502Z,70.97
2023-07-20T05:44:48.521Z,70.95
2023-07-20T05:45:38.604Z,71.03
2023-07-20T05:46:33.525Z,71.02
2023-07-20T05:47:19.644Z,71.16
2023-07-20T05:48:08.723Z,71.13
2023-07-20T05:48:58.728Z,71.26
2023-07-20T05:49:48.768Z,71.17
2023-07-20T05:50:38.829Z,70.94
2023-07-20T05:51:28.939Z,70.86
2023-07-20T05:52:18.935Z,70.95
2023-07-20T05:53:09.200Z,70.92
2023-07-20T05:53:59.220Z,70.95
2023-07-20T05:54:49.295Z,71.04
2023-07-20T05:55:39.342Z,70.95
2023-07-20T05:56:29.397Z,71.01
2023-07-20T05:57:19.398Z,71.07
2023-07-20T05:58:09.481Z,70.94
2023-07-20T05:58:59.509Z,71.01
2023-07-20T05:59:49.585Z,70.93
2023-07-20T06:00:39.615Z,70.95
2023-07-20T06:01:29.788Z,71.06
2023-07-20T06:02:19.752Z,70.99
2023-07-20T06:03:09.815Z,70.89
2023-07-20T06:03:59.900Z,70.95
2023-07-20T06:04:49.893Z,71.03
2023-07-20T06:05:39.947Z,71.06
2023-07-20T06:06:30.016Z,70.97
2023-07-20T06:07:20.069Z,71.03
2023-07-20T06:08:10.122Z,71.07
2023-07-20T06:09:00.158Z,71.04
2023-07-20T06:09:50.250Z,70.93
2023-07-20T06:10:41.556Z,70.89
2023-07-20T06:11:30.348Z,70.77
2023-07-20T06:12:20.393Z,70.81
2023-07-20T06:13:10.464Z,70.79
2023-07-20T06:14:00.490Z,70.90
2023-07-20T06:14:50.576Z,70.92
2023-07-20T06:15:40.591Z,70.96
2023-07-20T06:16:30.799Z,70.83
2023-07-20T06:17:20.773Z,70.74
2023-07-20T06:18:10.842Z,70.81
2023-07-20T06:19:00.878Z,70.83
2023-07-20T06:19:50.933Z,70.95
2023-07-20T06:20:41.084Z,70.95
2023-07-20T06:21:31.170Z,70.83
2023-07-20T06:22:21.212Z,70.73
2023-07-20T06:23:11.360Z,70.70
2023-07-20T06:24:01.379Z,70.84
2023-07-20T06:24:51.422Z,70.91
2023-07-20T06:25:41.493Z,70.97
2023-07-20T06:26:31.566Z,71.01
2023-07-20T06:27:21.595Z,71.12
2023-07-20T06:28:11.670Z,70.92
2023-07-20T06:29:01.702Z,70.83
2023-07-20T06:29:51.759Z,70.53
2023-07-20T06:30:41.868Z,70.51
2023-07-20T06:31:31.945Z,70.58
2023-07-20T06:32:21.946Z,70.45
2023-07-20T06:33:12.038Z,70.20
2023-07-20T06:34:02.185Z,70.01
2023-07-20T06:34:52.117Z,69.92
2023-07-20T06:35:42.157Z,70.02
2023-07-20T06:36:32.251Z,69.91
2023-07-20T06:37:22.269Z,69.88
2023-07-20T06:40:42.512Z,69.67
2023-07-20T06:42:22.605Z,69.79
2023-07-20T06:44:02.736Z,69.86
2023-07-20T06:44:52.808Z,69.76
2023-07-20T06:45:43.007Z,69.59
2023-07-20T06:46:33.003Z,69.31
2023-07-20T06:47:23.022Z,69.14
2023-07-20T06:48:13.076Z,69.25
2023-07-20T06:49:53.175Z,68.74
2023-07-20T06:50:43.248Z,68.78
2023-07-20T06:51:33.335Z,68.80
2023-07-20T06:52:23.377Z,68.69
2023-07-20T06:53:13.441Z,68.31
2023-07-20T06:54:03.481Z,67.83
2023-07-20T06:54:53.573Z,67.92
2023-07-20T06:55:43.589Z,67.82
2023-07-20T06:56:34.405Z,67.43
2023-07-20T06:57:23.960Z,67.43
2023-07-20T06:58:14.041Z,67.57
2023-07-20T06:59:04.073Z,67.32
2023-07-20T06:59:54.184Z,67.70
2023-07-20T07:00:44.180Z,68.81
2023-07-20T07:01:34.319Z,68.35
2023-07-20T07:02:24.397Z,67.61
2023-07-20T07:03:14.393Z,67.68
2023-07-20T07:04:04.470Z,67.93
2023-07-20T07:05:00.423Z,68.09
2023-07-20T07:05:45.588Z,68.29
2023-07-20T07:06:34.622Z,68.61
2023-07-20T07:07:27.708Z,68.75
2023-07-20T07:08:14.677Z,68.89
2023-07-20T07:09:04.732Z,68.96
2023-07-20T07:09:54.885Z,68.00
2023-07-20T07:10:44.828Z,67.58
2023-07-20T07:11:34.907Z,67.60
2023-07-20T07:12:24.930Z,67.81
2023-07-20T07:13:14.992Z,67.96
2023-07-20T07:14:05.057Z,67.78
2023-07-20T07:14:55.134Z,67.71
2023-07-20T07:15:45.253Z,68.22
2023-07-20T07:17:25.664Z,67.64
2023-07-20T07:18:15.592Z,67.87
2023-07-20T07:19:05.608Z,67.99
2023-07-20T07:19:55.679Z,67.68
2023-07-20T07:20:45.942Z,67.15
2023-07-20T07:21:36.019Z,67.59
2023-07-20T07:22:26.069Z,67.41
2023-07-20T07:23:16.165Z,67.64
2023-07-20T07:24:06.160Z,68.36
2023-07-20T07:24:56.228Z,68.52
2023-07-20T07:25:46.343Z,67.49
2023-07-20T07:26:36.382Z,67.12
2023-07-20T07:27:26.407Z,67.08
2023-07-20T07:28:16.466Z,67.05
2023-07-20T07:29:06.534Z,66.63
2023-07-20T07:29:56.852Z,66.20
2023-07-20T07:30:46.962Z,66.56
2023-07-20T07:31:37.021Z,66.19
2023-07-20T07:32:27.067Z,66.15
2023-07-20T07:33:17.075Z,66.05
2023-07-20T07:34:07.125Z,66.01
2023-07-20T07:34:57.185Z,66.20
2023-07-20T07:35:47.240Z,66.67
2023-07-20T07:36:37.316Z,67.20
2023-07-20T07:37:27.361Z,67.04
2023-07-20T07:38:34.432Z,67.40
2023-07-20T07:39:57.510Z,66.74
2023-07-20T07:40:47.596Z,67.33
2023-07-20T07:41:37.942Z,67.56
2023-07-20T07:42:27.699Z,68.10
2023-07-20T07:43:17.765Z,68.19
2023-07-20T07:44:07.829Z,67.67
2023-07-20T07:44:58.018Z,67.60
2023-07-20T07:45:48.096Z,67.84
2023-07-20T07:46:38.222Z,67.92
2023-07-20T07:47:28.246Z,67.89
2023-07-20T07:48:18.577Z,66.91
2023-07-20T07:49:08.641Z,66.69
2023-07-20T07:49:58.713Z,66.04
2023-07-20T07:50:48.781Z,66.12
2023-07-20T07:51:38.879Z,66.39
2023-07-20T07:52:28.913Z,66.08
2023-07-20T07:53:18.934Z,65.91
2023-07-20T07:54:09.098Z,65.35
2023-07-20T07:54:59.061Z,65.85
2023-07-20T07:55:49.122Z,66.01
2023-07-20T07:56:39.196Z,66.30
2023-07-20T07:57:29.228Z,66.27
2023-07-20T07:58:19.264Z,66.04
2023-07-20T07:59:09.336Z,65.87
2023-07-20T07:59:59.411Z,65.31
2023-07-20T08:00:49.519Z,65.67
2023-07-20T08:01:39.556Z,65.77
2023-07-20T08:02:29.608Z,65.63
2023-07-20T08:03:19.747Z,65.32
2023-07-20T08:04:09.883Z,65.42
2023-07-20T08:04:59.939Z,65.03
2023-07-20T08:05:50.008Z,65.31
2023-07-20T08:06:40.302Z,66.20
2023-07-20T08:07:30.368Z,66.19
2023-07-20T08:08:20.822Z,66.02
2023-07-20T08:09:10.721Z,66.86
2023-07-20T08:10:00.777Z,67.14
2023-07-20T08:10:50.854Z,67.04
2023-07-20T08:11:40.910Z,66.97
2023-07-20T08:12:37.240Z,66.01
2023-07-20T08:13:20.995Z,66.54
2023-07-20T08:14:11.061Z,65.27
2023-07-20T08:15:01.121Z,65.96
2023-07-20T08:15:51.184Z,65.71
2023-07-20T08:16:41.523Z,65.72
2023-07-20T08:17:31.747Z,65.62
2023-07-20T08:18:21.650Z,65.29
2023-07-20T08:19:11.851Z,65.42
2023-07-20T08:20:01.850Z,65.45
2023-07-20T08:20:51.906Z,64.71
2023-07-20T08:21:41.989Z,65.00
2023-07-20T08:22:31.995Z,65.28
2023-07-20T08:23:22.058Z,65.39
2023-07-20T08:24:12.154Z,65.66
2023-07-20T08:25:02.162Z,65.20
2023-07-20T08:25:52.200Z,65.13
2023-07-20T08:26:42.333Z,66.03
2023-07-20T08:27:32.286Z,65.18
2023-07-20T08:28:22.390Z,65.52
2023-07-20T08:29:12.428Z,65.60
2023-07-20T08:30:02.658Z,65.44
2023-07-20T08:30:52.744Z,65.70
2023-07-20T08:31:42.815Z,65.84
2023-07-20T08:32:32.872Z,65.94
2023-07-20T08:33:22.916Z,65.84
2023-07-20T08:34:24.381Z,65.60
2023-07-20T08:35:04.040Z,66.09
2023-07-20T08:35:53.099Z,66.34
2023-07-20T08:36:43.172Z,66.55
2023-07-20T08:37:33.256Z,66.68
2023-07-20T08:38:24.825Z,66.84
2023-07-20T08:39:13.355Z,67.26
2023-07-20T08:40:03.420Z,67.42
2023-07-20T08:40:53.476Z,67.65
2023-07-20T08:41:43.548Z,67.09
2023-07-20T08:42:33.615Z,67.14
2023-07-20T08:43:23.671Z,67.27
2023-07-20T08:44:13.782Z,67.26
2023-07-20T08:45:03.787Z,68.33
2023-07-20T08:45:54.073Z,68.21
2023-07-20T08:46:44.157Z,68.50
2023-07-20T08:47:34.189Z,68.57
2023-07-20T08:48:24.223Z,68.50
2023-07-20T08:49:14.297Z,68.88
2023-07-20T08:50:04.361Z,69.27
2023-07-20T08:50:54.452Z,69.67
2023-07-20T08:51:44.515Z,69.63
2023-07-20T08:52:34.543Z,69.62
2023-07-20T08:53:24.615Z,69.50
2023-07-20T08:54:14.666Z,69.61
2023-07-20T08:55:04.904Z,69.66
2023-07-20T08:55:54.970Z,69.55
2023-07-20T08:56:45.053Z,69.68
2023-07-20T08:57:35.093Z,69.81
2023-07-20T08:58:25.128Z,69.71
2023-07-20T08:59:15.190Z,70.15
2023-07-20T09:00:05.285Z,69.86
2023-07-20T09:00:55.347Z,70.57
2023-07-20T09:01:45.463Z,69.34
2023-07-20T09:02:35.511Z,70.27
2023-07-20T09:03:25.570Z,70.71
2023-07-20T09:04:15.759Z,70.65
2023-07-20T09:05:05.823Z,70.88
2023-07-20T09:05:55.894Z,71.29
2023-07-20T09:06:46.238Z,70.66
2023-07-20T09:07:36.260Z,70.76
2023-07-20T09:08:26.318Z,71.31
2023-07-20T09:09:16.642Z,70.61
2023-07-20T09:10:06.706Z,70.24
2023-07-20T09:10:56.757Z,69.97
2023-07-20T09:11:47.091Z,69.80
2023-07-20T09:12:37.168Z,70.59
2023-07-20T09:13:28.711Z,71.05
2023-07-20T09:14:17.254Z,71.15
2023-07-20T09:15:07.305Z,70.55
2023-07-20T09:15:57.414Z,70.68
2023-07-20T09:16:47.491Z,70.96
2023-07-20T09:17:37.825Z,70.89
2023-07-20T09:18:27.538Z,71.19
2023-07-20T09:19:17.602Z,70.74
2023-07-20T09:20:07.646Z,70.55
2023-07-20T09:20:57.961Z,71.15
2023-07-20T09:21:48.055Z,71.03
2023-07-20T09:22:38.060Z,71.19
2023-07-20T09:23:28.379Z,71.35
2023-07-20T09:24:18.539Z,71.49
2023-07-20T09:25:08.513Z,71.13
2023-07-20T09:25:58.581Z,70.99
2023-07-20T09:26:48.828Z,70.84
2023-07-20T09:27:38.701Z,70.72
2023-07-20T09:28:28.760Z,70.72
2023-07-20T09:29:18.826Z,71.57
2023-07-20T09:30:08.895Z,71.10
2023-07-20T09:30:58.973Z,70.86
2023-07-20T09:31:49.396Z,70.50
2023-07-20T09:32:53.889Z,70.57
2023-07-20T09:33:30.437Z,70.31
2023-07-20T09:34:37.432Z,70.18
2023-07-20T09:36:07.243Z,70.32
2023-07-20T09:37:39.646Z,69.70
2023-07-20T09:39:04.835Z,69.21
2023-07-20T09:41:01.411Z,69.82
2023-07-20T09:41:50.029Z,69.74
2023-07-20T09:42:40.078Z,69.12
2023-07-20T09:43:30.113Z,69.15
2023-07-20T09:45:10.195Z,69.58
2023-07-20T09:46:00.261Z,69.54
2023-07-20T09:47:40.484Z,68.88
2023-07-20T09:51:00.641Z,69.48
2023-07-20T09:51:50.717Z,69.49
2023-07-20T09:53:30.910Z,69.44
2023-07-20T09:54:20.924Z,69.42
2023-07-20T09:55:10.969Z,69.38
2023-07-20T09:56:01.037Z,69.35
2023-07-20T09:56:51.116Z,69.29
2023-07-20T09:57:41.181Z,69.30
2023-07-20T09:58:31.233Z,69.27
2023-07-20T09:59:21.316Z,69.29
2023-07-20T10:01:01.662Z,69.20
2023-07-20T10:01:51.773Z,69.28
2023-07-20T10:02:41.848Z,69.25
2023-07-20T10:03:33.646Z,69.10
2023-07-20T10:04:22.294Z,69.03
2023-07-20T10:05:11.959Z,68.86
2023-07-20T10:06:02.041Z,68.17
2023-07-20T10:06:52.057Z,68.28
2023-07-20T10:07:42.140Z,68.06
2023-07-20T10:09:22.250Z,68.40
2023-07-20T10:10:12.372Z,67.89
2023-07-20T10:11:02.385Z,67.58
2023-07-20T10:12:06.385Z,67.85
2023-07-20T10:12:44.164Z,67.88
2023-07-20T10:13:32.834Z,68.07
2023-07-20T10:14:22.892Z,68.17
2023-07-20T10:15:12.952Z,68.26
2023-07-20T10:16:04.015Z,68.04
2023-07-20T10:16:53.412Z,68.03
2023-07-20T10:17:43.400Z,67.00
2023-07-20T10:18:33.771Z,65.99
2023-07-20T10:19:23.749Z,65.70
2023-07-20T10:20:13.823Z,66.27
2023-07-20T10:21:56.556Z,66.83
2023-07-20T10:22:47.144Z,66.67
2023-07-20T10:23:34.065Z,66.88
2023-07-20T10:24:24.169Z,66.44
2023-07-20T10:25:14.213Z,66.73
2023-07-20T10:26:04.267Z,66.99
2023-07-20T10:26:54.414Z,66.92
2023-07-20T10:27:44.421Z,67.70
2023-07-20T10:28:34.503Z,67.60
2023-07-20T10:29:24.820Z,68.05
2023-07-20T10:30:14.906Z,68.35
2023-07-20T10:31:04.929Z,68.64
2023-07-20T10:31:55.956Z,69.31
2023-07-20T10:32:45.090Z,69.55
2023-07-20T10:33:35.124Z,69.66
2023-07-20T10:34:25.364Z,69.76
2023-07-20T10:35:15.251Z,70.15
2023-07-20T10:36:05.317Z,70.02
2023-07-20T10:36:55.430Z,70.10
2023-07-20T10:37:47.094Z,70.09
2023-07-20T10:38:35.625Z,70.33
2023-07-20T10:39:25.784Z,70.23
2023-07-20T10:40:15.988Z,70.56
2023-07-20T10:41:06.033Z,70.19
2023-07-20T10:41:56.115Z,70.00
2023-07-20T10:42:46.137Z,70.32
2023-07-20T10:43:36.205Z,70.34
2023-07-20T10:44:26.271Z,70.17
2023-07-20T10:45:16.343Z,70.32
2023-07-20T10:46:06.391Z,70.34
2023-07-20T10:46:56.464Z,70.14
2023-07-20T10:47:46.545Z,70.05
2023-07-20T10:48:37.326Z,70.30
2023-07-20T10:49:26.588Z,70.55
2023-07-20T10:50:16.760Z,70.26
2023-07-20T10:51:06.716Z,70.20
2023-07-20T10:51:56.811Z,70.31
2023-07-20T10:52:46.842Z,70.17
2023-07-20T10:53:36.983Z,70.18
2023-07-20T10:54:26.953Z,70.20
2023-07-20T10:55:17.023Z,70.18
2023-07-20T10:56:07.344Z,70.31
2023-07-20T10:56:57.427Z,70.24
2023-07-20T10:57:47.453Z,70.22
2023-07-20T10:58:37.527Z,70.24
2023-07-20T10:59:27.584Z,70.21
2023-07-20T11:00:17.665Z,70.10
2023-07-20T11:01:07.694Z,70.26
2023-07-20T11:01:57.773Z,70.22